Bradley, IL

12:15 PM CST on November 24, 2014 (GMT -0600)
Chicago Lansing | Change Station
CLOSE
Current Station
Airport
Location: Chicago Lansing,
Elevation: 617 ft
Nearby Weather Stations
Active Advisory: Special Statement Active Notice: Public Information Statement

Elev 617 ft 41.54 °N, 87.53 °W | Updated 20 minutes ago

Snow
Snow
32 °F
Feels Like 19 °F
N
25
Wind Variable Wind from WSW
Gusts 31 mph

Today
High -- | Low -- °F
--% Chance of Precip.
Yesterday
High -- | Low -- °F
Precip. -- in
6:49 AM 4:26 PM
Waxing Crescent, 6% visible
Pressure 29.37 in
Visibility 1.5 miles
Clouds Overcast 800 ft
Windchill 19 °F
Dew Point 32 °F
Humidity 96%
Rainfall 0.40 in
Snow Depth Not available.
UV 1 out of 12
Pollen .10 out of 12
Air Quality Not available.
Flu Activity Not available.
METAR KIGQ 241755Z AUTO 25022G27KT 1 1/2SM -SN OVC008 00/00 A2937 RMK AO2 60022 T00021003 10092 20000

More Conditions Fewer Conditions

Pressure 29.37 in
Visibility 1.5 miles
Clouds Overcast 800 ft
Windchill 19 °F
Dew Point 32 °F
Humidity 96%
Rainfall 0.40 in
Snow Depth Not available.
UV 1 out of 12
Pollen .10 out of 12
Air Quality Not available.
Flu Activity Not available.
METAR KIGQ 241755Z AUTO 25022G27KT 1 1/2SM -SN OVC008 00/00 A2937 RMK AO2 60022 T00021003 10092 20000

More Conditions Fewer Conditions

10-Day Weather Forecast

Almanac

Astronomy

Nov. 24, 2014 Rise Set
Actual Time
Civil Twilight
Nautical Twilight
Astronomical Twilight
Moon
Length of Visible Light
Length of Day
Tomorrow will be .
, % of the Moon is Illuminated

Today's Extremes

State Highs State Lows

Community

WunderPhotos

Upload Photos

1,773,385 photos uploaded!

WunderBlogs® & News

Nearby

Air Quality

  Air Quality AQ Index Pollutant
Not available.

Snow Depth

Station Depth Elevation

Earthquake Activity

City Distance Mag. Time & Date
Minimum magnitude displayed is 2.5.

Coastal Water Temperatures

Place Temperature

Nearby Weather Stations